Logo Brunsvigian Airlines

Die löwenstarke Airline aus Braunschweig

Charts auf der Seite von VATEUD

EDLP 042220Z 23004KT 9999 SCT047 18/11 Q1018 RMK ATIS ROM

flugnummerleerzeichenankunftleerzeichenplanmaessig
ABS502__MAASTRICHT-AACHEN08doppelpunkt45
ABS504__MUENSTER-OSNABRUE15doppelpunkt40

flugnummerleerzeichenankunftleerzeichenplanmaessig
ABS501__MUENSTER-OSNABRUE08doppelpunkt20
ABS503__MAASTRICHT-AACHEN15doppelpunkt15

Mit Brunsvigian erreichen Sie auch die Domstadt Paderborn über den Flughafen Paderborn/Lippstadt.

Kontakt   Impressum

Valid HTML 4.01 Transitional CSS ist valide!